sensor_id;sensor_type;location;lat;lon;timestamp;pressure;altitude;pressure_sealevel;temperature;humidity
62029;BME280;50157;42.698;23.318;2023-02-12T00:01:34;95920.94;;;9.70;27.31
62029;BME280;50157;42.698;23.318;2023-02-12T00:04:01;95919.66;;;9.67;27.50
62029;BME280;50157;42.698;23.318;2023-02-12T00:06:28;95937.47;;;9.65;27.42
62029;BME280;50157;42.698;23.318;2023-02-12T00:08:56;95923.81;;;9.65;27.81
62029;BME280;50157;42.698;23.318;2023-02-12T00:11:24;95919.75;;;9.62;27.81
62029;BME280;50157;42.698;23.318;2023-02-12T00:13:51;95918.53;;;9.68;27.60
62029;BME280;50157;42.698;23.318;2023-02-12T00:16:21;95922.06;;;9.69;28.00
62029;BME280;50157;42.698;23.318;2023-02-12T00:18:50;95921.28;;;9.68;27.68
62029;BME280;50157;42.698;23.318;2023-02-12T00:21:17;95918.03;;;9.66;27.82
62029;BME280;50157;42.698;23.318;2023-02-12T00:23:44;95916.59;;;9.69;27.57
62029;BME280;50157;42.698;23.318;2023-02-12T00:26:12;95917.41;;;9.69;27.58
62029;BME280;50157;42.698;23.318;2023-02-12T00:28:39;95923.88;;;9.74;27.89
62029;BME280;50157;42.698;23.318;2023-02-12T00:31:07;95908.81;;;9.62;27.50
62029;BME280;50157;42.698;23.318;2023-02-12T00:33:35;95920.84;;;9.75;27.56
62029;BME280;50157;42.698;23.318;2023-02-12T00:36:03;95916.78;;;9.73;27.81
62029;BME280;50157;42.698;23.318;2023-02-12T00:38:29;95917.28;;;9.75;27.84
62029;BME280;50157;42.698;23.318;2023-02-12T00:40:56;95905.53;;;9.74;27.62
62029;BME280;50157;42.698;23.318;2023-02-12T00:43:23;95898.25;;;9.69;27.28
62029;BME280;50157;42.698;23.318;2023-02-12T00:45:50;95892.19;;;9.73;27.60
62029;BME280;50157;42.698;23.318;2023-02-12T00:48:17;95895.72;;;9.73;27.64
62029;BME280;50157;42.698;23.318;2023-02-12T00:50:45;95887.50;;;9.73;28.09
62029;BME280;50157;42.698;23.318;2023-02-12T00:53:13;95885.91;;;9.72;27.89
62029;BME280;50157;42.698;23.318;2023-02-12T00:55:40;95884.13;;;9.67;27.80
62029;BME280;50157;42.698;23.318;2023-02-12T00:58:07;95877.84;;;9.67;27.90
62029;BME280;50157;42.698;23.318;2023-02-12T01:00:33;95877.84;;;9.67;27.97
62029;BME280;50157;42.698;23.318;2023-02-12T01:03:00;95873.97;;;9.68;27.75
62029;BME280;50157;42.698;23.318;2023-02-12T01:05:28;95868.69;;;9.72;28.10
62029;BME280;50157;42.698;23.318;2023-02-12T01:07:56;95868.06;;;9.75;28.16
62029;BME280;50157;42.698;23.318;2023-02-12T01:10:23;95870.81;;;9.75;27.86
62029;BME280;50157;42.698;23.318;2023-02-12T01:12:50;95873.22;;;9.76;28.04
62029;BME280;50157;42.698;23.318;2023-02-12T01:15:17;95872.41;;;9.76;27.66
62029;BME280;50157;42.698;23.318;2023-02-12T01:17:44;95868.53;;;9.77;27.72
62029;BME280;50157;42.698;23.318;2023-02-12T01:20:12;95874.66;;;9.74;28.06
62029;BME280;50157;42.698;23.318;2023-02-12T01:22:41;95882.22;;;9.77;27.98
62029;BME280;50157;42.698;23.318;2023-02-12T01:25:10;95868.97;;;9.70;27.89
62029;BME280;50157;42.698;23.318;2023-02-12T01:27:37;95890.25;;;9.73;27.82
62029;BME280;50157;42.698;23.318;2023-02-12T01:30:06;95881.53;;;9.71;27.74
62029;BME280;50157;42.698;23.318;2023-02-12T01:32:33;95868.16;;;9.61;28.08
62029;BME280;50157;42.698;23.318;2023-02-12T01:35:01;95889.63;;;9.76;27.65
62029;BME280;50157;42.698;23.318;2023-02-12T01:37:27;95869.31;;;9.68;27.90
62029;BME280;50157;42.698;23.318;2023-02-12T01:39:54;95884.94;;;9.77;27.85
62029;BME280;50157;42.698;23.318;2023-02-12T01:42:22;95877.56;;;9.77;27.96
62029;BME280;50157;42.698;23.318;2023-02-12T01:47:49;95864.22;;;9.76;28.34
62029;BME280;50157;42.698;23.318;2023-02-12T01:50:18;95860.34;;;9.77;28.46
62029;BME280;50157;42.698;23.318;2023-02-12T01:52:47;95857.13;;;9.75;28.30
62029;BME280;50157;42.698;23.318;2023-02-12T01:55:18;95854.50;;;9.69;28.23
62029;BME280;50157;42.698;23.318;2023-02-12T01:57:48;95864.53;;;9.74;28.17
62029;BME280;50157;42.698;23.318;2023-02-12T02:00:18;95843.03;;;9.59;28.73
62029;BME280;50157;42.698;23.318;2023-02-12T02:02:48;95856.78;;;9.67;28.68
62029;BME280;50157;42.698;23.318;2023-02-12T02:05:20;95865.13;;;9.71;28.31
62029;BME280;50157;42.698;23.318;2023-02-12T02:07:48;95858.03;;;9.70;28.19
62029;BME280;50157;42.698;23.318;2023-02-12T02:10:15;95860.78;;;9.70;28.58
62029;BME280;50157;42.698;23.318;2023-02-12T02:12:41;95867.88;;;9.71;28.37
62029;BME280;50157;42.698;23.318;2023-02-12T02:15:29;95870.59;;;9.71;28.52
62029;BME280;50157;42.698;23.318;2023-02-12T02:18:00;95867.88;;;9.71;28.81
62029;BME280;50157;42.698;23.318;2023-02-12T02:23:52;95859.00;;;9.65;28.80
62029;BME280;50157;42.698;23.318;2023-02-12T02:26:34;95862.72;;;9.69;28.66
62029;BME280;50157;42.698;23.318;2023-02-12T02:29:31;95868.19;;;9.69;28.90
62029;BME280;50157;42.698;23.318;2023-02-12T02:32:06;95854.50;;;9.69;28.66
62029;BME280;50157;42.698;23.318;2023-02-12T02:34:38;95855.16;;;9.66;29.10
62029;BME280;50157;42.698;23.318;2023-02-12T02:37:11;95851.41;;;9.62;28.74
62029;BME280;50157;42.698;23.318;2023-02-12T02:39:46;95855.25;;;9.61;28.91
62029;BME280;50157;42.698;23.318;2023-02-12T02:42:17;95853.47;;;9.57;29.24
62029;BME280;50157;42.698;23.318;2023-02-12T02:44:47;95862.34;;;9.62;29.46
62029;BME280;50157;42.698;23.318;2023-02-12T02:47:19;95859.13;;;9.60;29.41
62029;BME280;50157;42.698;23.318;2023-02-12T02:49:51;95867.34;;;9.60;29.43
62029;BME280;50157;42.698;23.318;2023-02-12T02:52:24;95856.72;;;9.59;29.37
62029;BME280;50157;42.698;23.318;2023-02-12T02:54:57;95863.16;;;9.63;29.26
62029;BME280;50157;42.698;23.318;2023-02-12T02:57:29;95858.81;;;9.62;29.54
62029;BME280;50157;42.698;23.318;2023-02-12T03:00:00;95867.50;;;9.64;29.14
62029;BME280;50157;42.698;23.318;2023-02-12T03:02:32;95864.78;;;9.64;29.63
62029;BME280;50157;42.698;23.318;2023-02-12T03:05:03;95871.88;;;9.65;29.54
62029;BME280;50157;42.698;23.318;2023-02-12T03:07:35;95867.19;;;9.65;29.82
62029;BME280;50157;42.698;23.318;2023-02-12T03:10:09;95869.75;;;9.62;29.46
62029;BME280;50157;42.698;23.318;2023-02-12T03:12:42;95869.88;;;9.57;29.44
62029;BME280;50157;42.698;23.318;2023-02-12T03:15:13;95863.97;;;9.63;29.38
62029;BME280;50157;42.698;23.318;2023-02-12T03:17:45;95869.13;;;9.65;29.66
62029;BME280;50157;42.698;23.318;2023-02-12T03:20:16;95866.69;;;9.63;29.62
62029;BME280;50157;42.698;23.318;2023-02-12T03:22:49;95865.88;;;9.63;29.88
62029;BME280;50157;42.698;23.318;2023-02-12T03:25:21;95859.94;;;9.61;29.97
62029;BME280;50157;42.698;23.318;2023-02-12T03:27:55;95863.47;;;9.61;30.08
62029;BME280;50157;42.698;23.318;2023-02-12T03:30:29;95852.38;;;9.58;29.84
62029;BME280;50157;42.698;23.318;2023-02-12T03:33:05;95857.22;;;9.61;30.04
62029;BME280;50157;42.698;23.318;2023-02-12T03:35:41;95855.09;;;9.58;30.48
62029;BME280;50157;42.698;23.318;2023-02-12T03:38:17;95854.72;;;9.51;30.25
62029;BME280;50157;42.698;23.318;2023-02-12T03:40:52;95846.66;;;9.46;30.58
62029;BME280;50157;42.698;23.318;2023-02-12T03:43:24;95855.25;;;9.53;30.37
62029;BME280;50157;42.698;23.318;2023-02-12T03:45:56;95850.75;;;9.57;30.15
62029;BME280;50157;42.698;23.318;2023-02-12T03:48:27;95857.97;;;9.53;30.14
62029;BME280;50157;42.698;23.318;2023-02-12T03:50:58;95855.25;;;9.53;30.19
62029;BME280;50157;42.698;23.318;2023-02-12T03:53:28;95855.84;;;9.50;30.69
62029;BME280;50157;42.698;23.318;2023-02-12T03:56:00;95840.81;;;9.39;30.71
62029;BME280;50157;42.698;23.318;2023-02-12T03:58:29;95863.75;;;9.51;30.41
62029;BME280;50157;42.698;23.318;2023-02-12T04:00:59;95855.34;;;9.48;30.43
62029;BME280;50157;42.698;23.318;2023-02-12T04:03:28;95858.56;;;9.50;30.77
62029;BME280;50157;42.698;23.318;2023-02-12T04:05:55;95827.13;;;9.30;30.63
62029;BME280;50157;42.698;23.318;2023-02-12T04:08:22;95857.28;;;9.47;30.39
62029;BME280;50157;42.698;23.318;2023-02-12T04:10:57;95855.34;;;9.48;30.52
62029;BME280;50157;42.698;23.318;2023-02-12T04:13:33;95851.31;;;9.45;31.09
62029;BME280;50157;42.698;23.318;2023-02-12T04:16:16;95850.81;;;9.43;30.66
62029;BME280;50157;42.698;23.318;2023-02-12T04:18:47;95860.66;;;9.44;30.59
62029;BME280;50157;42.698;23.318;2023-02-12T04:21:21;95863.69;;;9.43;30.70
62029;BME280;50157;42.698;23.318;2023-02-12T04:23:59;95873.81;;;9.42;30.63
62029;BME280;50157;42.698;23.318;2023-02-12T04:26:35;95866.56;;;9.38;31.10
62029;BME280;50157;42.698;23.318;2023-02-12T04:29:12;95869.75;;;9.40;31.11
62029;BME280;50157;42.698;23.318;2023-02-12T04:31:45;95850.53;;;9.22;31.09
62029;BME280;50157;42.698;23.318;2023-02-12T04:34:18;95864.13;;;9.36;30.98
62029;BME280;50157;42.698;23.318;2023-02-12T04:36:53;95872.31;;;9.36;31.51
62029;BME280;50157;42.698;23.318;2023-02-12T04:39:24;95866.34;;;9.34;31.17
62029;BME280;50157;42.698;23.318;2023-02-12T04:41:53;95852.63;;;9.25;30.98
62029;BME280;50157;42.698;23.318;2023-02-12T04:44:28;95873.44;;;9.35;31.03
62029;BME280;50157;42.698;23.318;2023-02-12T04:46:55;95878.09;;;9.35;31.59
62029;BME280;50157;42.698;23.318;2023-02-12T04:49:24;95866.41;;;9.20;31.07
62029;BME280;50157;42.698;23.318;2023-02-12T04:51:51;95893.69;;;9.34;31.35
62029;BME280;50157;42.698;23.318;2023-02-12T04:54:19;95891.25;;;9.33;31.18
62029;BME280;50157;42.698;23.318;2023-02-12T04:56:46;95892.06;;;9.33;30.99
62029;BME280;50157;42.698;23.318;2023-02-12T04:59:13;95893.69;;;9.34;31.38
62029;BME280;50157;42.698;23.318;2023-02-12T05:01:40;95896.41;;;9.34;31.61
62029;BME280;50157;42.698;23.318;2023-02-12T05:04:10;95890.94;;;9.34;31.23
62029;BME280;50157;42.698;23.318;2023-02-12T05:06:40;95890.13;;;9.34;31.70
62029;BME280;50157;42.698;23.318;2023-02-12T05:09:09;95898.03;;;9.35;31.15
62029;BME280;50157;42.698;23.318;2023-02-12T05:11:38;95894.50;;;9.35;31.71
62029;BME280;50157;42.698;23.318;2023-02-12T05:14:05;95892.06;;;9.33;31.68
62029;BME280;50157;42.698;23.318;2023-02-12T05:16:32;95908.97;;;9.35;31.84
62029;BME280;50157;42.698;23.318;2023-02-12T05:18:58;95915.25;;;9.36;31.68
62029;BME280;50157;42.698;23.318;2023-02-12T05:21:25;95909.78;;;9.36;31.16
62029;BME280;50157;42.698;23.318;2023-02-12T05:23:53;95907.66;;;9.33;31.40
62029;BME280;50157;42.698;23.318;2023-02-12T05:26:21;95920.72;;;9.36;31.76
62029;BME280;50157;42.698;23.318;2023-02-12T05:28:48;95925.34;;;9.35;32.12
62029;BME280;50157;42.698;23.318;2023-02-12T05:31:17;95922.03;;;9.38;31.73
62029;BME280;50157;42.698;23.318;2023-02-12T05:33:45;95923.59;;;9.39;31.90
62029;BME280;50157;42.698;23.318;2023-02-12T05:36:14;95930.69;;;9.40;31.73
62029;BME280;50157;42.698;23.318;2023-02-12T05:38:41;95935.84;;;9.42;31.85
62029;BME280;50157;42.698;23.318;2023-02-12T05:41:11;95915.38;;;9.31;32.40
62029;BME280;50157;42.698;23.318;2023-02-12T05:43:38;95937.09;;;9.36;32.76
62029;BME280;50157;42.698;23.318;2023-02-12T05:46:06;95936.59;;;9.34;32.50
62029;BME280;50157;42.698;23.318;2023-02-12T05:48:34;95937.28;;;9.39;32.57
62029;BME280;50157;42.698;23.318;2023-02-12T05:51:01;95948.41;;;9.43;32.79
62029;BME280;50157;42.698;23.318;2023-02-12T05:53:28;95926.97;;;9.36;32.64
62029;BME280;50157;42.698;23.318;2023-02-12T05:56:05;95943.94;;;9.47;32.72
62029;BME280;50157;42.698;23.318;2023-02-12T05:58:34;95942.00;;;9.47;32.71
62029;BME280;50157;42.698;23.318;2023-02-12T06:01:01;95949.72;;;9.45;32.84
62029;BME280;50157;42.698;23.318;2023-02-12T06:03:27;95941.19;;;9.47;33.24
62029;BME280;50157;42.698;23.318;2023-02-12T06:05:54;95949.41;;;9.47;33.63
62029;BME280;50157;42.698;23.318;2023-02-12T06:08:21;95952.94;;;9.47;33.70
62029;BME280;50157;42.698;23.318;2023-02-12T06:10:48;95952.94;;;9.47;33.81
62029;BME280;50157;42.698;23.318;2023-02-12T06:13:14;95939.53;;;9.37;33.85
62029;BME280;50157;42.698;23.318;2023-02-12T06:15:42;95943.75;;;9.43;34.31
62029;BME280;50157;42.698;23.318;2023-02-12T06:18:09;95954.38;;;9.45;34.08
62029;BME280;50157;42.698;23.318;2023-02-12T06:20:37;95948.09;;;9.44;34.04
62029;BME280;50157;42.698;23.318;2023-02-12T06:23:04;95952.94;;;9.47;34.30
62029;BME280;50157;42.698;23.318;2023-02-12T06:25:30;95956.38;;;9.53;34.48
62029;BME280;50157;42.698;23.318;2023-02-12T06:27:57;95953.00;;;9.56;34.93
62029;BME280;50157;42.698;23.318;2023-02-12T06:30:24;95955.56;;;9.52;35.31
62029;BME280;50157;42.698;23.318;2023-02-12T06:32:52;95949.00;;;9.53;35.35
62029;BME280;50157;42.698;23.318;2023-02-12T06:35:19;95932.63;;;9.40;35.40
62029;BME280;50157;42.698;23.318;2023-02-12T06:37:45;95952.72;;;9.57;35.73
62029;BME280;50157;42.698;23.318;2023-02-12T06:40:13;95964.59;;;9.53;35.87
62029;BME280;50157;42.698;23.318;2023-02-12T06:42:39;95962.47;;;9.50;36.44
62029;BME280;50157;42.698;23.318;2023-02-12T06:45:07;95974.19;;;9.50;36.64
62029;BME280;50157;42.698;23.318;2023-02-12T06:47:36;95966.38;;;9.57;36.86
62029;BME280;50157;42.698;23.318;2023-02-12T06:50:05;95955.56;;;9.52;36.68
62029;BME280;50157;42.698;23.318;2023-02-12T06:52:32;95965.88;;;9.55;37.14
62029;BME280;50157;42.698;23.318;2023-02-12T06:54:59;95979.06;;;9.53;37.29
62029;BME280;50157;42.698;23.318;2023-02-12T06:57:26;95956.63;;;9.43;37.46
62029;BME280;50157;42.698;23.318;2023-02-12T06:59:54;95964.59;;;9.53;37.16
62029;BME280;50157;42.698;23.318;2023-02-12T07:02:21;95969.72;;;9.54;37.30
62029;BME280;50157;42.698;23.318;2023-02-12T07:04:48;95971.34;;;9.55;37.32
62029;BME280;50157;42.698;23.318;2023-02-12T07:07:17;95976.81;;;9.55;37.28
62029;BME280;50157;42.698;23.318;2023-02-12T07:09:43;95969.91;;;9.58;37.33
62029;BME280;50157;42.698;23.318;2023-02-12T07:12:10;95968.00;;;9.58;37.41
62029;BME280;50157;42.698;23.318;2023-02-12T07:14:37;95964.75;;;9.56;37.57
62029;BME280;50157;42.698;23.318;2023-02-12T07:17:04;95962.03;;;9.56;37.43
62029;BME280;50157;42.698;23.318;2023-02-12T07:19:32;95969.91;;;9.58;37.70
62029;BME280;50157;42.698;23.318;2023-02-12T07:21:59;95964.75;;;9.56;37.95
62029;BME280;50157;42.698;23.318;2023-02-12T07:24:27;95951.75;;;9.40;37.53
62029;BME280;50157;42.698;23.318;2023-02-12T07:26:54;95972.97;;;9.56;37.63
62029;BME280;50157;42.698;23.318;2023-02-12T07:29:21;95976.72;;;9.60;37.70
62029;BME280;50157;42.698;23.318;2023-02-12T07:31:47;95950.22;;;9.47;38.12
62029;BME280;50157;42.698;23.318;2023-02-12T07:34:14;95969.63;;;9.59;37.46
62029;BME280;50157;42.698;23.318;2023-02-12T07:36:41;95969.31;;;9.61;38.09
62029;BME280;50157;42.698;23.318;2023-02-12T07:39:10;95975.09;;;9.59;38.01
62029;BME280;50157;42.698;23.318;2023-02-12T07:41:38;95987.13;;;9.58;37.62
62029;BME280;50157;42.698;23.318;2023-02-12T07:44:07;95986.84;;;9.60;38.01
62029;BME280;50157;42.698;23.318;2023-02-12T07:46:37;95995.13;;;9.55;38.41
62029;BME280;50157;42.698;23.318;2023-02-12T07:49:06;95995.47;;;9.53;37.89
62029;BME280;50157;42.698;23.318;2023-02-12T07:51:35;95997.69;;;9.51;38.21
62029;BME280;50157;42.698;23.318;2023-02-12T07:54:03;95999.22;;;9.44;38.31
62029;BME280;50157;42.698;23.318;2023-02-12T07:56:31;95997.63;;;9.43;38.83
62029;BME280;50157;42.698;23.318;2023-02-12T07:59:03;95998.56;;;9.38;38.79
62029;BME280;50157;42.698;23.318;2023-02-12T08:01:31;96003.38;;;9.41;38.91
62029;BME280;50157;42.698;23.318;2023-02-12T08:04:00;95994.06;;;9.42;38.97
62029;BME280;50157;42.698;23.318;2023-02-12T08:06:29;95956.28;;;9.22;38.56
62029;BME280;50157;42.698;23.318;2023-02-12T08:08:57;95999.09;;;9.49;38.81
62029;BME280;50157;42.698;23.318;2023-02-12T08:11:25;95985.75;;;9.47;38.56
62029;BME280;50157;42.698;23.318;2023-02-12T08:13:52;95995.78;;;9.52;38.55
62029;BME280;50157;42.698;23.318;2023-02-12T08:16:22;95993.50;;;9.54;39.18
62029;BME280;50157;42.698;23.318;2023-02-12T08:18:49;95997.88;;;9.55;39.33
62029;BME280;50157;42.698;23.318;2023-02-12T08:21:17;95996.75;;;9.56;39.32
62029;BME280;50157;42.698;23.318;2023-02-12T08:23:45;95994.81;;;9.56;39.02
62029;BME280;50157;42.698;23.318;2023-02-12T08:26:15;95999.69;;;9.59;38.84
62029;BME280;50157;42.698;23.318;2023-02-12T08:28:45;96011.09;;;9.61;39.08
62029;BME280;50157;42.698;23.318;2023-02-12T08:31:15;96020.75;;;9.59;39.22
62029;BME280;50157;42.698;23.318;2023-02-12T08:33:46;96015.28;;;9.59;39.39
62029;BME280;50157;42.698;23.318;2023-02-12T08:36:15;96017.72;;;9.60;39.21
62029;BME280;50157;42.698;23.318;2023-02-12T08:38:43;96019.75;;;9.55;39.33
62029;BME280;50157;42.698;23.318;2023-02-12T08:41:11;96021.25;;;9.61;39.47
62029;BME280;50157;42.698;23.318;2023-02-12T08:43:40;95999.41;;;9.47;39.43
62029;BME280;50157;42.698;23.318;2023-02-12T08:46:08;96032.38;;;9.64;39.19
62029;BME280;50157;42.698;23.318;2023-02-12T08:48:36;96036.72;;;9.65;39.36
62029;BME280;50157;42.698;23.318;2023-02-12T08:51:07;96008.94;;;9.50;39.50
62029;BME280;50157;42.698;23.318;2023-02-12T08:53:34;96047.06;;;9.68;40.00
62029;BME280;50157;42.698;23.318;2023-02-12T08:56:02;96043.00;;;9.66;39.48
62029;BME280;50157;42.698;23.318;2023-02-12T08:58:29;96039.47;;;9.65;39.37
62029;BME280;50157;42.698;23.318;2023-02-12T09:00:56;96046.56;;;9.66;39.44
62029;BME280;50157;42.698;23.318;2023-02-12T09:03:23;96039.63;;;9.69;39.25
62029;BME280;50157;42.698;23.318;2023-02-12T09:05:50;96049.28;;;9.66;39.34
62029;BME280;50157;42.698;23.318;2023-02-12T09:08:18;96056.03;;;9.69;39.42
62029;BME280;50157;42.698;23.318;2023-02-12T09:10:45;96055.28;;;9.68;39.46
62029;BME280;50157;42.698;23.318;2023-02-12T09:13:13;96059.13;;;9.67;39.42
62029;BME280;50157;42.698;23.318;2023-02-12T09:15:41;96052.03;;;9.66;40.02
62029;BME280;50157;42.698;23.318;2023-02-12T09:18:08;96061.72;;;9.73;39.98
62029;BME280;50157;42.698;23.318;2023-02-12T09:20:37;96061.13;;;9.76;39.97
62029;BME280;50157;42.698;23.318;2023-02-12T09:23:04;96051.28;;;9.75;40.01
62029;BME280;50157;42.698;23.318;2023-02-12T09:25:33;96061.50;;;9.83;39.55
62029;BME280;50157;42.698;23.318;2023-02-12T09:28:00;96058.25;;;9.81;39.63
62029;BME280;50157;42.698;23.318;2023-02-12T09:30:27;96063.28;;;9.87;39.72
62029;BME280;50157;42.698;23.318;2023-02-12T09:32:54;96059.63;;;9.92;39.53
62029;BME280;50157;42.698;23.318;2023-02-12T09:35:21;96062.25;;;9.97;39.32
62029;BME280;50157;42.698;23.318;2023-02-12T09:37:48;96067.22;;;9.95;39.46
62029;BME280;50157;42.698;23.318;2023-02-12T09:40:18;96051.03;;;9.85;39.82
62029;BME280;50157;42.698;23.318;2023-02-12T09:43:03;96066.59;;;9.98;39.51
62029;BME280;50157;42.698;23.318;2023-02-12T09:45:34;96067.22;;;9.95;39.62
62029;BME280;50157;42.698;23.318;2023-02-12T09:48:17;96066.53;;;9.89;39.96
62029;BME280;50157;42.698;23.318;2023-02-12T09:50:52;96031.44;;;9.69;39.92
62029;BME280;50157;42.698;23.318;2023-02-12T09:53:22;96081.84;;;9.90;39.70
62029;BME280;50157;42.698;23.318;2023-02-12T09:55:50;96082.44;;;9.87;40.04
62029;BME280;50157;42.698;23.318;2023-02-12T09:58:27;96081.84;;;9.90;40.03
62029;BME280;50157;42.698;23.318;2023-02-12T10:00:55;96086.66;;;9.93;39.77
62029;BME280;50157;42.698;23.318;2023-02-12T10:03:22;96078.38;;;9.98;39.61
62029;BME280;50157;42.698;23.318;2023-02-12T10:05:51;96072.47;;;10.05;39.49
62029;BME280;50157;42.698;23.318;2023-02-12T10:08:40;96077.28;;;10.08;39.58
62029;BME280;50157;42.698;23.318;2023-02-12T10:11:22;96077.66;;;10.15;39.89
62029;BME280;50157;42.698;23.318;2023-02-12T10:14:02;96072.59;;;10.22;39.52
62029;BME280;50157;42.698;23.318;2023-02-12T10:16:42;96082.94;;;10.25;39.21
62029;BME280;50157;42.698;23.318;2023-02-12T10:19:25;96087.59;;;10.25;39.31
62029;BME280;50157;42.698;23.318;2023-02-12T10:22:00;96076.03;;;10.28;39.53
62029;BME280;50157;42.698;23.318;2023-02-12T10:24:48;96073.16;;;10.33;39.32
62029;BME280;50157;42.698;23.318;2023-02-12T10:27:30;96061.59;;;10.36;39.16
62029;BME280;50157;42.698;23.318;2023-02-12T10:30:04;96071.44;;;10.37;39.22
62029;BME280;50157;42.698;23.318;2023-02-12T10:32:40;96073.22;;;10.41;39.40
62029;BME280;50157;42.698;23.318;2023-02-12T10:35:12;96077.53;;;10.34;39.40
62029;BME280;50157;42.698;23.318;2023-02-12T10:37:42;96073.97;;;10.33;39.45
62029;BME280;50157;42.698;23.318;2023-02-12T10:40:17;96058.44;;;10.20;39.35
62029;BME280;50157;42.698;23.318;2023-02-12T10:42:47;96078.50;;;10.38;39.39
62029;BME280;50157;42.698;23.318;2023-02-12T10:45:18;96078.19;;;10.39;39.53
62029;BME280;50157;42.698;23.318;2023-02-12T10:47:48;96076.16;;;10.45;39.24
62029;BME280;50157;42.698;23.318;2023-02-12T10:50:23;96076.31;;;10.49;39.09
62029;BME280;50157;42.698;23.318;2023-02-12T10:52:53;96074.91;;;10.51;39.32
62029;BME280;50157;42.698;23.318;2023-02-12T10:55:26;96064.63;;;10.57;39.12
62029;BME280;50157;42.698;23.318;2023-02-12T10:57:54;96067.22;;;10.62;39.19
62029;BME280;50157;42.698;23.318;2023-02-12T11:00:26;96073.69;;;10.66;38.93
62029;BME280;50157;42.698;23.318;2023-02-12T11:03:05;96076.94;;;10.68;39.08
62029;BME280;50157;42.698;23.318;2023-02-12T11:05:34;96059.09;;;10.48;39.33
62029;BME280;50157;42.698;23.318;2023-02-12T11:08:02;96087.03;;;10.59;39.35
62029;BME280;50157;42.698;23.318;2023-02-12T11:10:31;96083.16;;;10.60;39.65
62029;BME280;50157;42.698;23.318;2023-02-12T11:12:59;96078.50;;;10.60;39.44
62029;BME280;50157;42.698;23.318;2023-02-12T11:15:34;96084.44;;;10.62;39.24
62029;BME280;50157;42.698;23.318;2023-02-12T11:18:04;96077.56;;;10.65;39.55
62029;BME280;50157;42.698;23.318;2023-02-12T11:20:33;96070.66;;;10.67;39.45
62029;BME280;50157;42.698;23.318;2023-02-12T11:23:04;96067.25;;;10.70;39.22
62029;BME280;50157;42.698;23.318;2023-02-12T11:25:33;96045.75;;;10.55;39.50
62029;BME280;50157;42.698;23.318;2023-02-12T11:28:14;96077.28;;;10.75;39.23
62029;BME280;50157;42.698;23.318;2023-02-12T11:30:53;96076.47;;;10.74;38.99
62029;BME280;50157;42.698;23.318;2023-02-12T11:33:23;96067.31;;;10.79;39.29
62029;BME280;50157;42.698;23.318;2023-02-12T11:35:53;96071.81;;;10.83;39.11
62029;BME280;50157;42.698;23.318;2023-02-12T11:38:26;96051.81;;;10.74;38.83
62029;BME280;50157;42.698;23.318;2023-02-12T11:40:56;96072.34;;;10.86;39.42
62029;BME280;50157;42.698;23.318;2023-02-12T11:43:25;96075.06;;;10.86;38.70
62029;BME280;50157;42.698;23.318;2023-02-12T11:45:55;96064.09;;;10.86;39.30
62029;BME280;50157;42.698;23.318;2023-02-12T11:48:26;96070.25;;;10.91;39.12
62029;BME280;50157;42.698;23.318;2023-02-12T11:50:57;96069.78;;;10.89;39.23
62029;BME280;50157;42.698;23.318;2023-02-12T11:53:27;96064.47;;;10.93;39.29
62029;BME280;50157;42.698;23.318;2023-02-12T11:55:58;96059.78;;;10.93;39.27
62029;BME280;50157;42.698;23.318;2023-02-12T11:58:26;96066.72;;;10.91;38.98
62029;BME280;50157;42.698;23.318;2023-02-12T12:01:00;96068.16;;;10.88;38.76
62029;BME280;50157;42.698;23.318;2023-02-12T12:03:35;96069.78;;;10.89;39.20
62029;BME280;50157;42.698;23.318;2023-02-12T12:06:08;96074.44;;;10.89;39.24
62029;BME280;50157;42.698;23.318;2023-02-12T12:08:40;96078.47;;;10.91;38.95
62029;BME280;50157;42.698;23.318;2023-02-12T12:11:13;96074.94;;;10.91;39.05
62029;BME280;50157;42.698;23.318;2023-02-12T12:13:46;96075.25;;;10.89;39.14
62029;BME280;50157;42.698;23.318;2023-02-12T12:16:18;96077.19;;;10.89;39.24
62029;BME280;50157;42.698;23.318;2023-02-12T12:19:11;96067.66;;;10.86;39.46
62029;BME280;50157;42.698;23.318;2023-02-12T12:22:03;96069.63;;;10.94;38.89
62029;BME280;50157;42.698;23.318;2023-02-12T12:24:41;96077.53;;;10.96;38.98
62029;BME280;50157;42.698;23.318;2023-02-12T12:27:18;96069.31;;;10.96;39.14
62029;BME280;50157;42.698;23.318;2023-02-12T12:30:15;96077.22;;;10.97;38.88
62029;BME280;50157;42.698;23.318;2023-02-12T12:32:48;96082.22;;;10.95;38.92
62029;BME280;50157;42.698;23.318;2023-02-12T12:35:21;96085.56;;;10.92;39.21
62029;BME280;50157;42.698;23.318;2023-02-12T12:37:53;96077.84;;;10.94;38.67
62029;BME280;50157;42.698;23.318;2023-02-12T12:40:41;96080.59;;;10.94;38.94
62029;BME280;50157;42.698;23.318;2023-02-12T12:43:16;96082.53;;;10.94;39.11
62029;BME280;50157;42.698;23.318;2023-02-12T12:48:55;96095.09;;;10.95;38.72
62029;BME280;50157;42.698;23.318;2023-02-12T12:51:34;96091.06;;;10.92;39.29
62029;BME280;50157;42.698;23.318;2023-02-12T12:54:13;96092.00;;;10.88;38.67
62029;BME280;50157;42.698;23.318;2023-02-12T12:56:51;96095.06;;;10.86;39.16
62029;BME280;50157;42.698;23.318;2023-02-12T12:59:36;96104.09;;;10.87;39.62
62029;BME280;50157;42.698;23.318;2023-02-12T13:02:36;96101.03;;;10.88;39.09
62029;BME280;50157;42.698;23.318;2023-02-12T13:05:29;96101.00;;;10.79;39.27
62029;BME280;50157;42.698;23.318;2023-02-12T13:08:04;96103.59;;;10.84;39.19
62029;BME280;50157;42.698;23.318;2023-02-12T13:10:34;96102.16;;;10.87;39.58
62029;BME280;50157;42.698;23.318;2023-02-12T13:13:21;96113.44;;;10.86;39.11
62029;BME280;50157;42.698;23.318;2023-02-12T13:15:56;96114.53;;;10.84;39.26
62029;BME280;50157;42.698;23.318;2023-02-12T13:18:35;96112.44;;;10.81;39.47
62029;BME280;50157;42.698;23.318;2023-02-12T13:21:13;96108.59;;;10.82;39.52
62029;BME280;50157;42.698;23.318;2023-02-12T13:23:49;96118.75;;;10.82;39.61
62029;BME280;50157;42.698;23.318;2023-02-12T13:26:22;96112.44;;;10.81;39.77